Time,TemperatureF,DewpointF,PressureIn,WindDirection,WindDirectionDegrees,WindSpeedMPH,WindSpeedGustMPH,Humidity,HourlyPrecipIn,Conditions,Clouds,dailyrainin,SolarRadiationWatts/m^2,SoftwareType,DateUTC
2013-10-08 00:03:00,51.0,50.0,-100.00,NNE,16,1.0,5.0,95,0.00,,,0.00,0.000000,,2013-10-08 05:03:00,
2013-10-08 00:13:00,51.0,50.0,-100.00,NNE,16,1.0,5.0,95,0.00,,,0.00,0.000000,,2013-10-08 05:13:00,
2013-10-08 00:22:00,51.0,50.0,-100.00,NNE,16,1.0,5.0,95,0.00,,,0.00,0.000000,,2013-10-08 05:22:00,
2013-10-08 00:53:00,50.0,48.0,-100.00,NE,53,2.0,6.0,94,0.00,,,0.00,0.000000,,2013-10-08 05:53:00,
2013-10-08 01:02:00,50.0,48.0,-100.00,NE,53,2.0,6.0,94,0.00,,,0.00,0.000000,,2013-10-08 06:02:00,
2013-10-08 01:12:00,50.0,48.0,-100.00,NE,53,2.0,6.0,94,0.00,,,0.00,0.000000,,2013-10-08 06:12:00,
2013-10-08 01:22:00,50.0,48.0,-100.00,NE,53,2.0,6.0,94,0.00,,,0.00,0.000000,,2013-10-08 06:22:00,
2013-10-08 01:52:00,49.0,48.0,-100.00,ENE,61,3.0,7.0,95,0.00,,,0.00,0.000000,,2013-10-08 06:52:00,
2013-10-08 02:02:00,49.0,48.0,-100.00,ENE,61,3.0,7.0,95,0.00,,,0.00,0.000000,,2013-10-08 07:02:00,
2013-10-08 02:11:00,49.0,48.0,-100.00,ENE,61,3.0,7.0,95,0.00,,,0.00,0.000000,,2013-10-08 07:11:00,
2013-10-08 02:21:00,49.0,48.0,-100.00,ENE,61,3.0,7.0,95,0.00,,,0.00,0.000000,,2013-10-08 07:21:00,
2013-10-08 02:52:00,51.0,48.0,-100.00,NE,38,4.0,7.0,90,0.00,,,0.00,0.000000,,2013-10-08 07:52:00,
2013-10-08 03:02:00,51.0,48.0,-100.00,NE,38,4.0,7.0,90,0.00,,,0.00,0.000000,,2013-10-08 08:02:00,
2013-10-08 03:12:00,51.0,48.0,-100.00,NE,38,4.0,7.0,90,0.00,,,0.00,0.000000,,2013-10-08 08:12:00,
2013-10-08 03:22:00,51.0,48.0,-100.00,NE,38,4.0,7.0,90,0.00,,,0.00,0.000000,,2013-10-08 08:22:00,
2013-10-08 03:52:00,50.0,47.0,-100.00,NE,53,3.0,11.0,91,0.00,,,0.00,0.000000,,2013-10-08 08:52:00,
2013-10-08 04:02:00,50.0,47.0,-100.00,NE,53,3.0,11.0,91,0.00,,,0.00,0.000000,,2013-10-08 09:02:00,
2013-10-08 04:12:00,50.0,47.0,-100.00,NE,53,3.0,11.0,91,0.00,,,0.00,0.000000,,2013-10-08 09:12:00,
2013-10-08 04:22:00,50.0,47.0,-100.00,NE,53,3.0,11.0,91,0.00,,,0.00,0.000000,,2013-10-08 09:22:00,
2013-10-08 04:53:00,48.0,47.0,-100.00,North,11,0.0,7.0,96,0.00,,,0.00,0.000000,,2013-10-08 09:53:00,
2013-10-08 05:03:00,48.0,47.0,-100.00,North,11,0.0,7.0,96,0.00,,,0.00,0.000000,,2013-10-08 10:03:00,
2013-10-08 05:12:00,48.0,47.0,-100.00,North,11,0.0,7.0,96,0.00,,,0.00,0.000000,,2013-10-08 10:12:00,
2013-10-08 05:23:00,48.0,47.0,-100.00,North,11,0.0,7.0,96,0.00,,,0.00,0.000000,,2013-10-08 10:23:00,
2013-10-08 05:53:00,46.0,45.0,-100.00,NNE,22,0.0,4.0,98,0.00,,,0.00,0.000000,,2013-10-08 10:53:00,
2013-10-08 06:02:00,46.0,45.0,-100.00,NNE,22,0.0,4.0,98,0.00,,,0.00,0.000000,,2013-10-08 11:02:00,
2013-10-08 06:12:00,46.0,45.0,-100.00,NNE,22,0.0,4.0,98,0.00,,,0.00,0.000000,,2013-10-08 11:12:00,
2013-10-08 06:22:00,46.0,45.0,-100.00,NNE,22,0.0,4.0,98,0.00,,,0.00,0.000000,,2013-10-08 11:22:00,
2013-10-08 06:52:00,46.0,46.0,-100.00,NW,314,0.0,3.0,99,0.00,,,0.00,0.000000,,2013-10-08 11:52:00,
2013-10-08 07:02:00,46.0,46.0,-100.00,NW,314,0.0,3.0,99,0.00,,,0.00,0.000000,,2013-10-08 12:02:00,
2013-10-08 07:12:00,46.0,46.0,-100.00,NW,314,0.0,3.0,99,0.00,,,0.00,0.000000,,2013-10-08 12:12:00,
2013-10-08 07:21:00,46.0,46.0,-100.00,NW,314,0.0,3.0,99,0.00,,,0.00,0.000000,,2013-10-08 12:21:00,
2013-10-08 07:52:00,45.0,45.0,-100.00,SE,126,1.0,4.0,99,0.00,,,0.00,7.000000,,2013-10-08 12:52:00,
2013-10-08 08:01:00,45.0,45.0,-100.00,SE,126,1.0,4.0,99,0.00,,,0.00,7.000000,,2013-10-08 13:01:00,
2013-10-08 08:12:00,45.0,45.0,-100.00,SE,126,1.0,4.0,99,0.00,,,0.00,7.000000,,2013-10-08 13:12:00,
2013-10-08 08:22:00,45.0,45.0,-100.00,SE,126,1.0,4.0,99,0.00,,,0.00,7.000000,,2013-10-08 13:22:00,
2013-10-08 08:52:00,53.0,48.0,-100.00,ENE,65,5.0,9.0,83,0.00,,,0.00,144.000000,,2013-10-08 13:52:00,
2013-10-08 09:02:00,53.0,48.0,-100.00,ENE,65,5.0,9.0,83,0.00,,,0.00,144.000000,,2013-10-08 14:02:00,
2013-10-08 09:11:00,53.0,48.0,-100.00,ENE,65,5.0,9.0,83,0.00,,,0.00,144.000000,,2013-10-08 14:11:00,
2013-10-08 09:22:00,53.0,48.0,-100.00,ENE,65,5.0,9.0,83,0.00,,,0.00,144.000000,,2013-10-08 14:22:00,
2013-10-08 09:52:00,58.0,49.0,-100.00,ENE,73,6.0,12.0,71,0.00,,,0.00,408.000000,,2013-10-08 14:52:00,
2013-10-08 10:01:00,58.0,49.0,-100.00,ENE,73,6.0,12.0,71,0.00,,,0.00,408.000000,,2013-10-08 15:01:00,
2013-10-08 10:11:00,58.0,49.0,-100.00,ENE,73,6.0,12.0,71,0.00,,,0.00,408.000000,,2013-10-08 15:11:00,
2013-10-08 10:22:00,58.0,49.0,-100.00,ENE,73,6.0,12.0,71,0.00,,,0.00,408.000000,,2013-10-08 15:22:00,
2013-10-08 10:53:00,62.0,49.0,-100.00,East,90,6.0,14.0,62,0.00,,,0.00,595.000000,,2013-10-08 15:53:00,
2013-10-08 11:03:00,62.0,49.0,-100.00,East,90,6.0,14.0,62,0.00,,,0.00,595.000000,,2013-10-08 16:03:00,
2013-10-08 11:13:00,62.0,49.0,-100.00,East,90,6.0,14.0,62,0.00,,,0.00,595.000000,,2013-10-08 16:13:00,
2013-10-08 11:23:00,62.0,49.0,-100.00,East,90,6.0,14.0,62,0.00,,,0.00,595.000000,,2013-10-08 16:23:00,
2013-10-08 11:53:00,65.0,48.0,-100.00,East,80,7.0,13.0,54,0.00,,,0.00,736.000000,,2013-10-08 16:53:00,
2013-10-08 12:03:00,65.0,48.0,-100.00,East,80,7.0,13.0,54,0.00,,,0.00,736.000000,,2013-10-08 17:03:00,
2013-10-08 12:12:00,65.0,48.0,-100.00,East,80,7.0,13.0,54,0.00,,,0.00,736.000000,,2013-10-08 17:12:00,
2013-10-08 12:23:00,65.0,48.0,-100.00,East,80,7.0,13.0,54,0.00,,,0.00,736.000000,,2013-10-08 17:23:00,
2013-10-08 12:52:00,67.0,47.0,-100.00,East,90,6.0,13.0,48,0.00,,,0.00,817.000000,,2013-10-08 17:52:00,
2013-10-08 13:02:00,67.0,47.0,-100.00,East,90,6.0,13.0,48,0.00,,,0.00,817.000000,,2013-10-08 18:02:00,
2013-10-08 13:11:00,67.0,47.0,-100.00,East,90,6.0,13.0,48,0.00,,,0.00,817.000000,,2013-10-08 18:11:00,
2013-10-08 13:22:00,67.0,47.0,-100.00,East,90,6.0,13.0,48,0.00,,,0.00,817.000000,,2013-10-08 18:22:00,
2013-10-08 13:53:00,69.0,46.0,-100.00,ENE,57,7.0,15.0,44,0.00,,,0.00,829.000000,,2013-10-08 18:53:00,
2013-10-08 14:02:00,69.0,46.0,-100.00,ENE,57,7.0,15.0,44,0.00,,,0.00,829.000000,,2013-10-08 19:02:00,
2013-10-08 14:11:00,69.0,46.0,-100.00,ENE,57,7.0,15.0,44,0.00,,,0.00,829.000000,,2013-10-08 19:11:00,
2013-10-08 14:22:00,69.0,46.0,-100.00,ENE,57,7.0,15.0,44,0.00,,,0.00,829.000000,,2013-10-08 19:22:00,
2013-10-08 14:52:00,71.0,46.0,-100.00,NE,46,5.0,15.0,41,0.00,,,0.00,772.000000,,2013-10-08 19:52:00,
2013-10-08 15:02:00,71.0,46.0,-100.00,NE,46,5.0,15.0,41,0.00,,,0.00,772.000000,,2013-10-08 20:02:00,
2013-10-08 15:12:00,71.0,46.0,-100.00,NE,46,5.0,15.0,41,0.00,,,0.00,772.000000,,2013-10-08 20:12:00,
2013-10-08 15:22:00,71.0,46.0,-100.00,NE,46,5.0,15.0,41,0.00,,,0.00,772.000000,,2013-10-08 20:22:00,
2013-10-08 15:52:00,71.0,45.0,-100.00,NE,50,6.0,16.0,40,0.00,,,0.00,649.000000,,2013-10-08 20:52:00,
2013-10-08 16:02:00,71.0,45.0,-100.00,NE,50,6.0,16.0,40,0.00,,,0.00,649.000000,,2013-10-08 21:02:00,
2013-10-08 16:12:00,71.0,45.0,-100.00,NE,50,6.0,16.0,40,0.00,,,0.00,649.000000,,2013-10-08 21:12:00,
2013-10-08 16:22:00,71.0,45.0,-100.00,NE,50,6.0,16.0,40,0.00,,,0.00,649.000000,,2013-10-08 21:22:00,
2013-10-08 16:54:00,71.0,47.0,-100.00,ENE,60,5.0,14.0,42,0.00,,,-99.99,472.000000,,2013-10-08 21:54:00,
2013-10-08 17:03:00,71.0,47.0,-100.00,ENE,60,5.0,14.0,42,0.00,,,-99.99,472.000000,,2013-10-08 22:03:00,
2013-10-08 17:13:00,71.0,47.0,-100.00,ENE,60,5.0,14.0,42,0.00,,,-99.99,472.000000,,2013-10-08 22:13:00,
2013-10-08 17:24:00,71.0,47.0,-100.00,ENE,60,5.0,14.0,42,0.00,,,-99.99,472.000000,,2013-10-08 22:24:00,
2013-10-08 17:58:00,69.0,49.0,-100.00,NNE,33,2.0,9.0,49,0.00,,,0.00,268.000000,,2013-10-08 22:58:00,
2013-10-08 18:12:00,69.0,49.0,-100.00,NNE,33,2.0,9.0,49,0.00,,,0.00,268.000000,,2013-10-08 23:12:00,
2013-10-08 18:23:00,69.0,49.0,-100.00,NNE,33,2.0,9.0,49,0.00,,,0.00,268.000000,,2013-10-08 23:23:00,
2013-10-08 18:52:00,61.0,51.0,-100.00,NNE,12,1.0,7.0,70,0.00,,,0.00,43.000000,,2013-10-08 23:52:00,
2013-10-08 19:02:00,61.0,51.0,-100.00,NNE,12,1.0,7.0,70,0.00,,,0.00,43.000000,,2013-10-09 00:02:00,
2013-10-08 19:12:00,61.0,51.0,-100.00,NNE,12,1.0,7.0,70,0.00,,,0.00,43.000000,,2013-10-09 00:12:00,
2013-10-08 19:22:00,61.0,51.0,-100.00,NNE,12,1.0,7.0,70,0.00,,,0.00,43.000000,,2013-10-09 00:22:00,
2013-10-08 19:52:00,56.0,53.0,-100.00,ENE,64,1.0,5.0,90,0.00,,,-99.99,1.000000,,2013-10-09 00:52:00,
2013-10-08 20:02:00,56.0,53.0,-100.00,ENE,64,1.0,5.0,90,0.00,,,-99.99,1.000000,,2013-10-09 01:02:00,
2013-10-08 20:12:00,56.0,53.0,-100.00,ENE,64,1.0,5.0,90,0.00,,,-99.99,1.000000,,2013-10-09 01:12:00,
2013-10-08 20:22:00,56.0,53.0,-100.00,ENE,64,1.0,5.0,90,0.00,,,-99.99,1.000000,,2013-10-09 01:22:00,
2013-10-08 20:52:00,54.0,51.0,-100.00,ENE,61,3.0,8.0,90,0.00,,,0.00,0.000000,,2013-10-09 01:52:00,
2013-10-08 21:03:00,54.0,51.0,-100.00,ENE,61,3.0,8.0,90,0.00,,,0.00,0.000000,,2013-10-09 02:03:00,
2013-10-08 21:12:00,54.0,51.0,-100.00,ENE,61,3.0,8.0,90,0.00,,,0.00,0.000000,,2013-10-09 02:12:00,
2013-10-08 21:23:00,54.0,51.0,-100.00,ENE,61,3.0,8.0,90,0.00,,,0.00,0.000000,,2013-10-09 02:23:00,
2013-10-08 21:52:00,53.0,51.0,-100.00,ESE,111,1.0,8.0,93,0.00,,,0.00,0.000000,,2013-10-09 02:52:00,
2013-10-08 22:02:00,53.0,51.0,-100.00,ESE,111,1.0,8.0,93,0.00,,,0.00,0.000000,,2013-10-09 03:02:00,
2013-10-08 22:11:00,53.0,51.0,-100.00,ESE,111,1.0,8.0,93,0.00,,,0.00,0.000000,,2013-10-09 03:11:00,
2013-10-08 22:23:00,53.0,51.0,-100.00,ESE,111,1.0,8.0,93,0.00,,,0.00,0.000000,,2013-10-09 03:23:00,
2013-10-08 22:54:00,52.0,50.0,-100.00,ESE,102,0.0,3.0,94,0.00,,,0.00,0.000000,,2013-10-09 03:54:00,
2013-10-08 23:05:00,52.0,50.0,-100.00,ESE,102,0.0,3.0,94,0.00,,,0.00,0.000000,,2013-10-09 04:05:00,
2013-10-08 23:14:00,52.0,50.0,-100.00,ESE,102,0.0,3.0,94,0.00,,,0.00,0.000000,,2013-10-09 04:14:00,
2013-10-08 23:24:00,52.0,50.0,-100.00,ESE,102,0.0,3.0,94,0.00,,,0.00,0.000000,,2013-10-09 04:24:00,
2013-10-08 23:54:00,51.0,50.0,-100.00,SE,132,1.0,3.0,97,0.00,,,0.00,0.000000,,2013-10-09 04:54:00,